createdAt,value
2018-03-27T00:01:32.933Z,23.80
2018-03-27T00:04:01.779Z,21.80
2018-03-27T00:06:30.716Z,19.57
2018-03-27T00:09:00.423Z,22.20
2018-03-27T00:11:29.275Z,21.90
2018-03-27T00:13:58.141Z,22.83
2018-03-27T00:16:27.881Z,23.87
2018-03-27T00:18:56.742Z,21.80
2018-03-27T00:21:25.643Z,23.10
2018-03-27T00:23:54.450Z,26.00
2018-03-27T00:26:23.378Z,23.40
2018-03-27T00:28:58.266Z,22.07
2018-03-27T00:31:33.189Z,23.37
2018-03-27T00:34:07.871Z,24.03
2018-03-27T00:36:42.484Z,24.67
2018-03-27T00:39:17.144Z,23.60
2018-03-27T00:42:00.880Z,21.20
2018-03-27T00:44:30.558Z,23.77
2018-03-27T00:46:59.413Z,24.33
2018-03-27T00:49:28.355Z,23.07
2018-03-27T00:51:57.261Z,22.97
2018-03-27T00:54:26.131Z,21.93
2018-03-27T00:56:55.038Z,22.80
2018-03-27T00:59:23.942Z,21.73
2018-03-27T01:01:52.806Z,20.53
2018-03-27T01:04:21.649Z,24.00
2018-03-27T01:06:51.411Z,23.37
2018-03-27T01:09:20.271Z,24.87
2018-03-27T01:11:49.127Z,25.27
2018-03-27T01:14:19.821Z,23.43
2018-03-27T01:16:48.691Z,24.10
2018-03-27T01:19:17.564Z,27.83
2018-03-27T01:21:46.465Z,24.03
2018-03-27T01:24:15.332Z,26.33
2018-03-27T01:26:44.187Z,26.53
2018-03-27T01:29:13.083Z,24.20
2018-03-27T01:31:41.934Z,24.67
2018-03-27T01:34:10.807Z,25.53
2018-03-27T01:36:39.942Z,25.57
2018-03-27T01:39:08.800Z,29.03
2018-03-27T01:41:37.669Z,27.53
2018-03-27T01:44:06.582Z,23.93
2018-03-27T01:46:35.443Z,24.80
2018-03-27T01:49:04.312Z,22.57
2018-03-27T01:51:33.911Z,22.27
2018-03-27T01:54:02.773Z,22.77
2018-03-27T01:56:31.654Z,27.07
2018-03-27T01:59:00.567Z,23.20
2018-03-27T02:01:29.511Z,21.40
2018-03-27T02:03:58.397Z,21.07
2018-03-27T02:06:27.283Z,22.13
2018-03-27T02:08:56.139Z,21.50
2018-03-27T02:11:31.590Z,23.17
2018-03-27T02:14:06.313Z,21.90
2018-03-27T02:16:41.350Z,20.40
2018-03-27T02:19:16.462Z,22.13
2018-03-27T02:21:45.326Z,24.33
2018-03-27T02:24:14.964Z,21.63
2018-03-27T02:26:43.818Z,24.27
2018-03-27T02:29:12.705Z,23.57
2018-03-27T02:31:41.584Z,22.90
2018-03-27T02:34:10.487Z,21.93
2018-03-27T02:36:39.348Z,25.77
2018-03-27T02:39:08.192Z,25.33
2018-03-27T02:41:37.400Z,24.03
2018-03-27T02:44:06.258Z,24.63
2018-03-27T02:46:35.121Z,22.30
2018-03-27T02:49:04.119Z,20.57
2018-03-27T02:51:33.012Z,26.77
2018-03-27T02:54:02.194Z,25.83
2018-03-27T02:56:31.053Z,23.37
2018-03-27T02:59:01.311Z,27.37
2018-03-27T03:01:30.192Z,21.20
2018-03-27T03:03:59.052Z,22.07
2018-03-27T03:06:28.190Z,20.53
2018-03-27T03:08:57.045Z,28.80
2018-03-27T03:11:25.896Z,25.67
2018-03-27T03:13:54.850Z,23.40
2018-03-27T03:16:23.719Z,22.07
2018-03-27T03:18:52.586Z,25.70
2018-03-27T03:21:22.756Z,21.67
2018-03-27T03:23:51.620Z,21.97
2018-03-27T03:26:20.487Z,25.53
2018-03-27T03:28:49.360Z,22.43
2018-03-27T03:31:18.206Z,22.27
2018-03-27T03:33:47.414Z,22.13
2018-03-27T03:36:16.286Z,25.70
2018-03-27T03:38:45.269Z,21.83
2018-03-27T03:41:14.162Z,20.47
2018-03-27T03:43:43.018Z,21.83
2018-03-27T03:46:12.066Z,23.97
2018-03-27T03:48:40.927Z,22.30
2018-03-27T03:53:45.055Z,22.80
2018-03-27T03:56:13.919Z,20.43
2018-03-27T03:58:42.790Z,20.50
2018-03-27T04:01:11.691Z,20.57
2018-03-27T04:03:40.549Z,21.13
2018-03-27T04:06:09.406Z,21.87
2018-03-27T04:08:38.546Z,21.93
2018-03-27T04:11:07.412Z,24.80
2018-03-27T04:13:36.271Z,22.80
2018-03-27T04:16:05.532Z,21.47
2018-03-27T04:18:34.392Z,24.67
2018-03-27T04:21:03.538Z,24.37
2018-03-27T04:23:33.266Z,26.67
2018-03-27T04:26:02.119Z,24.63
2018-03-27T04:28:31.042Z,27.77
2018-03-27T04:30:59.890Z,23.80
2018-03-27T04:33:28.759Z,21.73
2018-03-27T04:35:57.680Z,22.80
2018-03-27T04:38:26.534Z,19.33
2018-03-27T04:40:55.394Z,26.50
2018-03-27T04:43:24.285Z,21.87
2018-03-27T04:45:53.484Z,20.43
2018-03-27T04:48:22.350Z,23.33
2018-03-27T04:50:51.952Z,22.10
2018-03-27T04:53:20.804Z,21.20
2018-03-27T04:55:49.682Z,19.47
2018-03-27T04:58:20.166Z,20.70
2018-03-27T05:00:49.052Z,20.67
2018-03-27T05:03:17.965Z,23.87
2018-03-27T05:05:46.962Z,23.07
2018-03-27T05:08:15.811Z,19.30
2018-03-27T05:10:44.674Z,19.57
2018-03-27T05:13:14.017Z,22.57
2018-03-27T05:15:42.890Z,21.37
2018-03-27T05:18:11.758Z,19.60
2018-03-27T05:20:40.638Z,21.73
2018-03-27T05:23:09.524Z,22.47
2018-03-27T05:25:39.730Z,23.77
2018-03-27T05:28:08.575Z,22.83
2018-03-27T05:30:37.602Z,22.40
2018-03-27T05:33:06.650Z,20.43
2018-03-27T05:35:35.502Z,22.77
2018-03-27T05:38:04.371Z,20.23
2018-03-27T05:40:33.323Z,21.10
2018-03-27T05:43:02.170Z,24.13
2018-03-27T05:45:31.056Z,22.00
2018-03-27T05:47:59.949Z,21.43
2018-03-27T05:50:28.803Z,19.03
2018-03-27T05:52:57.663Z,21.40
2018-03-27T05:55:27.298Z,18.10
2018-03-27T05:57:56.274Z,19.53
2018-03-27T06:00:25.157Z,21.23
2018-03-27T06:02:54.303Z,20.70
2018-03-27T06:05:23.171Z,21.10
2018-03-27T06:07:52.035Z,18.53
2018-03-27T06:10:20.927Z,21.50
2018-03-27T06:12:49.792Z,21.60
2018-03-27T06:15:18.694Z,22.30
2018-03-27T06:17:47.548Z,20.33
2018-03-27T06:20:16.634Z,19.93
2018-03-27T06:22:45.554Z,21.47
2018-03-27T06:25:14.409Z,19.77
2018-03-27T06:27:43.855Z,19.33
2018-03-27T06:30:12.756Z,20.20
2018-03-27T06:32:41.626Z,20.53
2018-03-27T06:35:11.597Z,23.23
2018-03-27T06:37:40.447Z,21.47
2018-03-27T06:40:09.315Z,22.03
2018-03-27T06:42:38.216Z,24.00
2018-03-27T06:45:07.061Z,24.50
2018-03-27T06:47:35.982Z,28.63
2018-03-27T06:50:04.826Z,30.17
2018-03-27T06:52:33.689Z,30.00
2018-03-27T06:55:02.810Z,30.13
2018-03-27T06:57:31.668Z,28.17
2018-03-27T07:00:00.531Z,32.37
2018-03-27T07:02:29.481Z,31.53
2018-03-27T07:04:58.542Z,34.50
2018-03-27T07:07:27.403Z,30.90
2018-03-27T07:09:56.383Z,34.77
2018-03-27T07:12:27.125Z,31.77
2018-03-27T07:14:56.026Z,35.33
2018-03-27T07:17:24.864Z,36.50
2018-03-27T07:19:53.794Z,35.00
2018-03-27T07:22:22.674Z,34.80
2018-03-27T07:24:51.525Z,33.87
2018-03-27T07:27:20.448Z,32.63
2018-03-27T07:29:49.303Z,32.13
2018-03-27T07:32:18.258Z,33.03
2018-03-27T07:34:47.273Z,34.50
2018-03-27T07:37:16.196Z,35.23
2018-03-27T07:39:45.413Z,37.27
2018-03-27T07:42:14.286Z,34.43
2018-03-27T07:44:43.158Z,33.70
2018-03-27T07:47:13.135Z,31.73
2018-03-27T07:49:41.994Z,34.20
2018-03-27T07:52:10.864Z,31.57
2018-03-27T07:54:39.746Z,34.00
2018-03-27T07:57:08.615Z,34.67
2018-03-27T07:59:37.535Z,36.73
2018-03-27T08:02:06.390Z,34.37
2018-03-27T08:04:35.246Z,33.77
2018-03-27T08:07:04.523Z,36.43
2018-03-27T08:09:33.373Z,34.97
2018-03-27T08:12:02.288Z,37.13
2018-03-27T08:14:31.507Z,37.43
2018-03-27T08:17:00.363Z,33.63
2018-03-27T08:19:29.222Z,35.37
2018-03-27T08:21:58.119Z,35.73
2018-03-27T08:24:27.084Z,36.33
2018-03-27T08:26:55.952Z,36.50
2018-03-27T08:29:24.802Z,36.43
2018-03-27T08:31:53.706Z,35.13
2018-03-27T08:34:23.915Z,36.20
2018-03-27T08:36:52.794Z,33.87
2018-03-27T08:39:21.686Z,32.87
2018-03-27T08:41:50.563Z,33.37
2018-03-27T08:44:19.541Z,33.67
2018-03-27T08:46:48.434Z,34.77
2018-03-27T08:49:17.297Z,32.07
2018-03-27T08:51:51.826Z,33.13
2018-03-27T08:54:20.763Z,33.33
2018-03-27T08:56:49.619Z,33.37
2018-03-27T08:59:19.608Z,34.23
2018-03-27T09:01:48.586Z,34.67
2018-03-27T09:04:17.444Z,35.63
2018-03-27T09:06:46.356Z,33.27
2018-03-27T09:09:15.228Z,37.07
2018-03-27T09:11:44.108Z,34.67
2018-03-27T09:14:13.281Z,33.43
2018-03-27T09:16:42.551Z,30.43
2018-03-27T09:19:11.429Z,32.37
2018-03-27T09:21:40.310Z,28.47
2018-03-27T09:24:09.194Z,30.83
2018-03-27T09:26:38.207Z,29.77
2018-03-27T09:29:07.058Z,30.63
2018-03-27T09:31:35.931Z,30.07
2018-03-27T09:34:04.823Z,28.10
2018-03-27T09:36:33.663Z,28.77
2018-03-27T09:39:03.202Z,26.97
2018-03-27T09:41:32.096Z,26.70
2018-03-27T09:44:00.962Z,26.20
2018-03-27T09:46:30.077Z,24.87
2018-03-27T09:48:58.938Z,25.23
2018-03-27T09:51:27.807Z,24.03
2018-03-27T09:53:56.733Z,24.23
2018-03-27T09:56:25.578Z,24.30
2018-03-27T09:58:54.442Z,23.57
2018-03-27T10:01:28.436Z,22.43
2018-03-27T10:03:57.276Z,23.33
2018-03-27T10:06:26.115Z,22.60
2018-03-27T10:08:55.053Z,22.27
2018-03-27T10:11:23.908Z,22.63
2018-03-27T10:13:52.754Z,23.17
2018-03-27T10:16:21.647Z,21.53
2018-03-27T10:18:51.377Z,22.10
2018-03-27T10:21:20.258Z,21.20
2018-03-27T10:23:49.153Z,25.10
2018-03-27T10:26:18.002Z,30.03
2018-03-27T10:28:46.907Z,22.93
2018-03-27T10:31:15.810Z,22.47
2018-03-27T10:33:44.680Z,21.17
2018-03-27T10:36:13.591Z,22.17
2018-03-27T10:38:42.446Z,22.47
2018-03-27T10:41:11.315Z,20.03
2018-03-27T10:43:40.183Z,22.27
2018-03-27T10:46:09.040Z,20.53
2018-03-27T10:48:37.898Z,21.70
2018-03-27T10:51:07.286Z,23.60
2018-03-27T10:53:36.180Z,20.40
2018-03-27T10:56:05.034Z,24.03
2018-03-27T10:58:34.164Z,19.93
2018-03-27T11:01:03.027Z,23.80
2018-03-27T11:03:31.890Z,18.70
2018-03-27T11:06:00.778Z,19.17
2018-03-27T11:08:29.630Z,19.33
2018-03-27T11:10:58.542Z,20.00
2018-03-27T11:13:27.411Z,19.43
2018-03-27T11:15:56.358Z,19.17
2018-03-27T11:18:25.238Z,19.57
2018-03-27T11:20:54.790Z,20.57
2018-03-27T11:23:23.990Z,20.07
2018-03-27T11:25:52.850Z,19.30
2018-03-27T11:28:21.713Z,21.13
2018-03-27T11:30:50.879Z,20.83
2018-03-27T11:33:19.742Z,21.23
2018-03-27T11:35:48.621Z,22.07
2018-03-27T11:38:18.565Z,21.20
2018-03-27T11:40:47.698Z,20.23
2018-03-27T11:43:16.556Z,20.43
2018-03-27T11:45:45.423Z,20.57
2018-03-27T11:48:14.276Z,20.60
2018-03-27T11:50:43.168Z,20.87
2018-03-27T11:53:12.030Z,21.90
2018-03-27T11:55:40.884Z,21.70
2018-03-27T11:58:12.676Z,20.80
2018-03-27T12:00:41.520Z,20.73
2018-03-27T12:03:10.398Z,19.87
2018-03-27T12:05:39.558Z,20.20
2018-03-27T12:08:08.414Z,22.03
2018-03-27T12:10:37.277Z,21.17
2018-03-27T12:13:07.073Z,21.63
2018-03-27T12:15:36.123Z,20.13
2018-03-27T12:18:06.234Z,21.10
2018-03-27T12:20:35.092Z,20.73
2018-03-27T12:23:04.415Z,20.47
2018-03-27T12:25:33.361Z,20.57
2018-03-27T12:28:02.210Z,19.40
2018-03-27T12:30:31.074Z,19.30
2018-03-27T12:33:00.699Z,20.40
2018-03-27T12:35:29.550Z,21.50
2018-03-27T12:37:58.402Z,21.27
2018-03-27T12:40:27.512Z,20.80
2018-03-27T12:42:57.164Z,21.93
2018-03-27T12:45:26.022Z,20.63
2018-03-27T12:47:54.919Z,21.43
2018-03-27T12:50:23.783Z,20.23
2018-03-27T12:52:53.014Z,20.80
2018-03-27T12:55:21.902Z,20.90
2018-03-27T12:57:50.770Z,21.30
2018-03-27T13:00:20.077Z,20.60
2018-03-27T13:02:49.475Z,20.47
2018-03-27T13:05:18.382Z,21.40
2018-03-27T13:07:47.586Z,21.63
2018-03-27T13:10:17.230Z,20.93
2018-03-27T13:12:46.118Z,21.57
2018-03-27T13:15:14.979Z,22.23
2018-03-27T13:17:43.938Z,21.27
2018-03-27T13:20:12.762Z,21.13
2018-03-27T13:22:41.636Z,20.57
2018-03-27T13:25:11.855Z,20.70
2018-03-27T13:27:40.711Z,21.27
2018-03-27T13:30:09.572Z,21.50
2018-03-27T13:32:38.515Z,22.37
2018-03-27T13:35:07.538Z,21.97
2018-03-27T13:37:36.409Z,21.33
2018-03-27T13:40:05.302Z,23.00
2018-03-27T13:42:34.152Z,20.40
2018-03-27T13:45:03.209Z,21.70
2018-03-27T13:47:32.115Z,20.90
2018-03-27T13:50:01.037Z,21.03
2018-03-27T13:52:29.887Z,20.13
2018-03-27T13:54:58.822Z,21.47
2018-03-27T13:57:32.143Z,20.47
2018-03-27T14:00:01.347Z,20.97
2018-03-27T14:02:30.216Z,20.40
2018-03-27T14:04:59.090Z,20.73
2018-03-27T14:07:28.246Z,20.37
2018-03-27T14:09:57.131Z,20.90
2018-03-27T14:12:25.986Z,21.00
2018-03-27T14:14:55.220Z,21.73
2018-03-27T14:17:24.315Z,22.30
2018-03-27T14:19:53.161Z,22.60
2018-03-27T14:22:22.066Z,22.53
2018-03-27T14:24:51.085Z,22.30
2018-03-27T14:27:20.167Z,22.37
2018-03-27T14:29:49.075Z,23.73
2018-03-27T14:32:19.238Z,24.87
2018-03-27T14:34:48.099Z,23.33
2018-03-27T14:37:16.966Z,24.83
2018-03-27T14:39:45.810Z,28.03
2018-03-27T14:42:14.670Z,27.93
2018-03-27T14:44:43.747Z,27.27
2018-03-27T14:47:12.583Z,29.50
2018-03-27T14:49:41.450Z,28.43
2018-03-27T14:52:11.226Z,29.97
2018-03-27T14:54:40.183Z,28.43
2018-03-27T14:57:09.083Z,27.83
2018-03-27T14:59:38.756Z,28.50
2018-03-27T15:02:07.745Z,28.23
2018-03-27T15:04:36.608Z,29.20
2018-03-27T15:07:05.475Z,28.67
2018-03-27T15:09:35.418Z,29.20
2018-03-27T15:12:04.270Z,29.73
2018-03-27T15:14:33.134Z,29.77
2018-03-27T15:17:02.059Z,29.03
2018-03-27T15:19:30.944Z,28.37
2018-03-27T15:21:59.808Z,28.77
2018-03-27T15:24:28.704Z,26.73
2018-03-27T15:26:57.619Z,29.30
2018-03-27T15:29:27.340Z,28.30
2018-03-27T15:31:56.223Z,29.83
2018-03-27T15:34:25.081Z,31.10
2018-03-27T15:36:54.142Z,30.03
2018-03-27T15:39:23.003Z,29.93
2018-03-27T15:41:51.891Z,28.87
2018-03-27T15:44:21.088Z,29.00
2018-03-27T15:46:49.956Z,30.10
2018-03-27T15:49:18.927Z,27.97
2018-03-27T15:51:47.822Z,28.37
2018-03-27T15:54:16.687Z,27.10
2018-03-27T15:56:46.093Z,29.27
2018-03-27T15:59:14.958Z,30.17
2018-03-27T16:01:43.824Z,28.73
2018-03-27T16:04:12.696Z,27.20
2018-03-27T16:06:41.573Z,27.83
2018-03-27T16:09:11.679Z,29.70
2018-03-27T16:11:40.535Z,28.93
2018-03-27T16:14:09.382Z,30.13
2018-03-27T16:16:38.277Z,28.63
2018-03-27T16:19:07.149Z,29.57
2018-03-27T16:21:36.129Z,29.50
2018-03-27T16:24:04.990Z,29.40
2018-03-27T16:26:33.854Z,29.77
2018-03-27T16:29:02.767Z,32.20
2018-03-27T16:31:31.968Z,33.33
2018-03-27T16:34:00.820Z,31.37
2018-03-27T16:36:29.739Z,28.23
2018-03-27T16:38:58.598Z,38.53
2018-03-27T16:41:27.448Z,36.13
2018-03-27T16:43:56.726Z,30.47
2018-03-27T16:46:25.613Z,34.70
2018-03-27T16:48:54.477Z,36.20
2018-03-27T16:51:23.541Z,27.80
2018-03-27T16:53:52.403Z,29.97
2018-03-27T16:56:21.261Z,28.23
2018-03-27T16:58:53.080Z,26.87
2018-03-27T17:01:22.079Z,28.30
2018-03-27T17:03:50.935Z,27.67
2018-03-27T17:06:19.951Z,27.30
2018-03-27T17:08:48.821Z,27.33
2018-03-27T17:11:17.697Z,26.43
2018-03-27T17:13:46.862Z,27.83
2018-03-27T17:16:15.730Z,28.37
2018-03-27T17:18:44.602Z,28.07
2018-03-27T17:21:13.727Z,28.40
2018-03-27T17:23:42.602Z,28.40
2018-03-27T17:26:11.456Z,26.80
2018-03-27T17:28:40.361Z,28.23
2018-03-27T17:31:09.221Z,27.23
2018-03-27T17:33:39.464Z,27.00
2018-03-27T17:36:09.171Z,28.87
2018-03-27T17:38:38.036Z,28.43
2018-03-27T17:41:06.893Z,27.73
2018-03-27T17:43:35.943Z,28.23
2018-03-27T17:46:04.936Z,28.20
2018-03-27T17:48:33.835Z,27.43
2018-03-27T17:51:02.726Z,28.77
2018-03-27T17:53:31.590Z,28.70
2018-03-27T17:56:01.056Z,28.97
2018-03-27T17:58:29.928Z,27.83
2018-03-27T18:00:58.787Z,28.40
2018-03-27T18:03:27.883Z,29.70
2018-03-27T18:05:56.833Z,27.73
2018-03-27T18:08:25.686Z,28.80
2018-03-27T18:10:54.583Z,28.17
2018-03-27T18:13:23.518Z,30.97
2018-03-27T18:15:52.399Z,28.17
2018-03-27T18:18:21.286Z,28.67
2018-03-27T18:20:50.159Z,26.53
2018-03-27T18:23:19.033Z,28.93
2018-03-27T18:25:48.260Z,29.20
2018-03-27T18:28:17.136Z,26.20
2018-03-27T18:30:45.998Z,28.73
2018-03-27T18:33:15.152Z,27.73
2018-03-27T18:35:44.744Z,28.73
2018-03-27T18:38:13.639Z,27.83
2018-03-27T18:40:42.516Z,25.13
2018-03-27T18:43:11.844Z,25.00
2018-03-27T18:45:41.308Z,26.90
2018-03-27T18:48:10.277Z,24.33
2018-03-27T18:50:39.842Z,25.40
2018-03-27T18:53:08.847Z,24.53
2018-03-27T18:55:39.287Z,24.33
2018-03-27T18:58:09.288Z,26.00
2018-03-27T19:00:38.175Z,25.03
2018-03-27T19:03:07.064Z,25.27
2018-03-27T19:05:35.936Z,24.33
2018-03-27T19:08:04.795Z,26.47
2018-03-27T19:10:33.652Z,22.90
2018-03-27T19:13:02.563Z,24.00
2018-03-27T19:15:31.441Z,24.30
2018-03-27T19:18:00.296Z,22.63
2018-03-27T19:20:29.191Z,21.80
2018-03-27T19:22:58.055Z,23.93
2018-03-27T19:25:26.968Z,21.03
2018-03-27T19:27:55.847Z,24.20
2018-03-27T19:30:24.728Z,21.53
2018-03-27T19:32:53.684Z,22.40
2018-03-27T19:35:22.555Z,22.93
2018-03-27T19:37:53.272Z,19.83
2018-03-27T19:40:23.399Z,18.83
2018-03-27T19:42:52.288Z,19.83
2018-03-27T19:45:21.196Z,20.53
2018-03-27T19:47:50.051Z,21.73
2018-03-27T19:50:19.834Z,21.30
2018-03-27T19:52:48.747Z,20.53
2018-03-27T19:55:17.611Z,19.40
2018-03-27T19:57:46.470Z,20.27
2018-03-27T20:00:15.979Z,20.83
2018-03-27T20:02:44.919Z,19.27
2018-03-27T20:05:13.779Z,18.33
2018-03-27T20:07:42.870Z,19.73
2018-03-27T20:10:11.746Z,19.27
2018-03-27T20:12:40.613Z,20.10
2018-03-27T20:15:09.531Z,16.37
2018-03-27T20:17:38.388Z,17.00
2018-03-27T20:20:07.242Z,17.63
2018-03-27T20:22:37.044Z,17.90
2018-03-27T20:25:06.043Z,15.73
2018-03-27T20:27:34.889Z,15.30
2018-03-27T20:30:04.075Z,16.30
2018-03-27T20:32:32.947Z,15.10
2018-03-27T20:35:02.524Z,14.83
2018-03-27T20:37:32.155Z,14.33
2018-03-27T20:40:01.377Z,13.70
2018-03-27T20:42:30.239Z,14.57
2018-03-27T20:44:59.138Z,13.10
2018-03-27T20:47:28.021Z,14.73
2018-03-27T20:49:56.900Z,13.60
2018-03-27T20:52:25.827Z,13.30
2018-03-27T20:54:54.758Z,12.60
2018-03-27T20:57:24.402Z,12.40
2018-03-27T20:59:54.207Z,12.93
2018-03-27T21:02:23.066Z,12.50
2018-03-27T21:04:51.914Z,10.90
2018-03-27T21:07:21.052Z,13.40
2018-03-27T21:09:49.911Z,12.60
2018-03-27T21:12:18.812Z,11.97
2018-03-27T21:14:49.266Z,11.30
2018-03-27T21:17:18.118Z,12.23
2018-03-27T21:19:46.970Z,12.27
2018-03-27T21:22:15.887Z,11.90
2018-03-27T21:24:44.783Z,11.90
2018-03-27T21:27:13.646Z,11.80
2018-03-27T21:29:42.915Z,11.53
2018-03-27T21:32:11.960Z,10.30
2018-03-27T21:34:40.810Z,11.60
2018-03-27T21:37:09.705Z,11.53
2018-03-27T21:39:38.556Z,11.97
2018-03-27T21:42:07.410Z,12.93
2018-03-27T21:44:36.567Z,12.90
2018-03-27T21:47:05.435Z,14.97
2018-03-27T21:49:34.320Z,13.73
2018-03-27T21:52:03.868Z,14.93
2018-03-27T21:54:32.764Z,14.53
2018-03-27T21:57:01.611Z,13.67
2018-03-27T21:59:30.740Z,14.03
2018-03-27T22:01:59.602Z,13.07
2018-03-27T22:04:28.475Z,12.60
2018-03-27T22:06:57.382Z,11.17
2018-03-27T22:09:26.243Z,12.97
2018-03-27T22:11:55.111Z,13.80
2018-03-27T22:14:24.025Z,12.57
2018-03-27T22:16:53.412Z,13.53
2018-03-27T22:19:22.258Z,12.90
2018-03-27T22:21:51.144Z,13.70
2018-03-27T22:24:19.998Z,13.87
2018-03-27T22:26:48.938Z,13.73
2018-03-27T22:29:17.899Z,14.50
2018-03-27T22:31:46.766Z,12.67
2018-03-27T22:34:16.046Z,15.63
2018-03-27T22:36:44.907Z,14.73
2018-03-27T22:39:13.831Z,13.73
2018-03-27T22:41:42.710Z,15.60
2018-03-27T22:44:11.586Z,14.87
2018-03-27T22:46:40.492Z,13.90
2018-03-27T22:49:09.304Z,13.80
2018-03-27T22:51:38.234Z,13.37
2018-03-27T22:54:07.419Z,15.20
2018-03-27T22:56:36.281Z,15.57
2018-03-27T22:59:05.152Z,14.13
2018-03-27T23:01:34.020Z,15.47
2018-03-27T23:04:02.918Z,14.17
2018-03-27T23:06:32.129Z,14.37
2018-03-27T23:09:00.977Z,13.70
2018-03-27T23:11:29.842Z,16.03
2018-03-27T23:14:00.327Z,15.70
2018-03-27T23:16:29.144Z,13.60
2018-03-27T23:21:33.439Z,12.80
2018-03-27T23:24:02.661Z,14.90
2018-03-27T23:26:31.510Z,13.53
2018-03-27T23:29:00.393Z,15.60
2018-03-27T23:31:29.272Z,14.50
2018-03-27T23:33:58.140Z,13.57
2018-03-27T23:36:27.042Z,14.00
2018-03-27T23:38:55.903Z,13.93
2018-03-27T23:41:24.757Z,16.50
2018-03-27T23:43:53.607Z,15.83
2018-03-27T23:46:22.470Z,17.17
2018-03-27T23:48:51.329Z,18.07
2018-03-27T23:51:20.365Z,15.73
2018-03-27T23:53:49.218Z,14.43
2018-03-27T23:56:18.071Z,16.30
2018-03-27T23:58:46.966Z,16.53
